sensor_id;sensor_type;location;lat;lon;timestamp;pressure;altitude;pressure_sealevel;temperature;humidity
7768;BME280;3928;42.626;23.382;2023-07-13T00:00:09;94462.28;;;26.01;46.54
7768;BME280;3928;42.626;23.382;2023-07-13T00:02:36;94463.00;;;26.03;46.06
7768;BME280;3928;42.626;23.382;2023-07-13T00:05:03;94460.63;;;26.00;45.10
7768;BME280;3928;42.626;23.382;2023-07-13T00:07:32;94458.94;;;25.99;45.22
7768;BME280;3928;42.626;23.382;2023-07-13T00:10:00;94454.28;;;26.03;46.17
7768;BME280;3928;42.626;23.382;2023-07-13T00:12:29;94462.03;;;26.04;45.04
7768;BME280;3928;42.626;23.382;2023-07-13T00:14:56;94454.06;;;26.06;44.77
7768;BME280;3928;42.626;23.382;2023-07-13T00:17:24;94458.59;;;26.04;45.10
7768;BME280;3928;42.626;23.382;2023-07-13T00:19:50;94456.06;;;26.02;45.93
7768;BME280;3928;42.626;23.382;2023-07-13T00:22:17;94459.53;;;26.03;46.21
7768;BME280;3928;42.626;23.382;2023-07-13T00:24:46;94458.94;;;25.99;46.87
7768;BME280;3928;42.626;23.382;2023-07-13T00:27:13;94458.34;;;25.96;48.02
7768;BME280;3928;42.626;23.382;2023-07-13T00:29:40;94461.16;;;25.92;49.35
7768;BME280;3928;42.626;23.382;2023-07-13T00:32:08;94460.50;;;25.54;51.67
7768;BME280;3928;42.626;23.382;2023-07-13T00:34:36;94454.56;;;25.02;54.28
7768;BME280;3928;42.626;23.382;2023-07-13T00:37:06;94450.38;;;24.62;55.99
7768;BME280;3928;42.626;23.382;2023-07-13T00:39:33;94453.50;;;24.29;57.68
7768;BME280;3928;42.626;23.382;2023-07-13T00:42:03;94439.13;;;24.09;58.51
7768;BME280;3928;42.626;23.382;2023-07-13T00:44:30;94452.34;;;24.07;58.92
7768;BME280;3928;42.626;23.382;2023-07-13T00:46:57;94444.75;;;24.03;59.06
7768;BME280;3928;42.626;23.382;2023-07-13T00:49:27;94448.22;;;24.03;58.68
7768;BME280;3928;42.626;23.382;2023-07-13T00:51:58;94439.72;;;24.00;59.19
7768;BME280;3928;42.626;23.382;2023-07-13T00:54:29;94445.91;;;23.99;59.20
7768;BME280;3928;42.626;23.382;2023-07-13T00:57:00;94432.81;;;23.99;58.91
7768;BME280;3928;42.626;23.382;2023-07-13T00:59:30;94437.53;;;23.94;59.52
7768;BME280;3928;42.626;23.382;2023-07-13T01:01:57;94439.34;;;24.06;58.59
7768;BME280;3928;42.626;23.382;2023-07-13T01:04:25;94440.78;;;24.10;58.25
7768;BME280;3928;42.626;23.382;2023-07-13T01:06:52;94430.06;;;24.00;58.32
7768;BME280;3928;42.626;23.382;2023-07-13T01:09:19;94420.31;;;23.89;57.36
7768;BME280;3928;42.626;23.382;2023-07-13T01:11:47;94429.97;;;24.02;56.84
7768;BME280;3928;42.626;23.382;2023-07-13T01:14:15;94370.25;;;23.67;57.32
7768;BME280;3928;42.626;23.382;2023-07-13T01:16:45;94432.19;;;24.08;57.11
7768;BME280;3928;42.626;23.382;2023-07-13T01:19:21;94435.16;;;24.16;57.26
7768;BME280;3928;42.626;23.382;2023-07-13T01:22:03;94439.75;;;24.25;57.46
7768;BME280;3928;42.626;23.382;2023-07-13T01:24:30;94440.31;;;24.30;57.67
7768;BME280;3928;42.626;23.382;2023-07-13T01:26:56;94428.22;;;24.28;56.99
7768;BME280;3928;42.626;23.382;2023-07-13T01:29:23;94441.66;;;24.23;58.94
7768;BME280;3928;42.626;23.382;2023-07-13T01:31:50;94432.41;;;24.05;59.20
7768;BME280;3928;42.626;23.382;2023-07-13T01:34:17;94437.44;;;23.95;59.80
7768;BME280;3928;42.626;23.382;2023-07-13T01:36:43;94440.97;;;23.81;60.62
7768;BME280;3928;42.626;23.382;2023-07-13T01:39:11;94428.13;;;23.64;61.52
7768;BME280;3928;42.626;23.382;2023-07-13T01:41:40;94438.41;;;23.53;62.78
7768;BME280;3928;42.626;23.382;2023-07-13T01:44:06;94445.16;;;23.57;62.56
7768;BME280;3928;42.626;23.382;2023-07-13T01:46:33;94425.53;;;23.50;62.26
7768;BME280;3928;42.626;23.382;2023-07-13T01:49:00;94434.41;;;23.61;62.38
7768;BME280;3928;42.626;23.382;2023-07-13T01:51:27;94424.38;;;23.68;61.88
7768;BME280;3928;42.626;23.382;2023-07-13T01:53:54;94398.59;;;23.48;62.18
7768;BME280;3928;42.626;23.382;2023-07-13T01:56:22;94428.75;;;23.68;62.14
7768;BME280;3928;42.626;23.382;2023-07-13T01:58:49;94435.59;;;23.70;61.73
7768;BME280;3928;42.626;23.382;2023-07-13T02:01:16;94393.75;;;23.42;61.83
7768;BME280;3928;42.626;23.382;2023-07-13T02:03:43;94433.81;;;23.71;62.07
7768;BME280;3928;42.626;23.382;2023-07-13T02:06:12;94433.81;;;23.71;61.71
7768;BME280;3928;42.626;23.382;2023-07-13T02:08:40;94431.06;;;23.59;62.05
7768;BME280;3928;42.626;23.382;2023-07-13T02:11:07;94441.94;;;23.66;61.95
7768;BME280;3928;42.626;23.382;2023-07-13T02:13:35;94437.69;;;23.51;62.80
7768;BME280;3928;42.626;23.382;2023-07-13T02:16:02;94423.56;;;23.26;64.15
7768;BME280;3928;42.626;23.382;2023-07-13T02:18:29;94445.34;;;23.27;64.60
7768;BME280;3928;42.626;23.382;2023-07-13T02:20:56;94425.44;;;23.24;64.00
7768;BME280;3928;42.626;23.382;2023-07-13T02:23:23;94445.28;;;23.14;64.94
7768;BME280;3928;42.626;23.382;2023-07-13T02:25:54;94443.66;;;22.99;64.84
7768;BME280;3928;42.626;23.382;2023-07-13T02:28:21;94449.56;;;22.88;65.68
7768;BME280;3928;42.626;23.382;2023-07-13T02:30:49;94450.19;;;22.63;66.79
7768;BME280;3928;42.626;23.382;2023-07-13T02:33:16;94442.44;;;22.62;66.82
7768;BME280;3928;42.626;23.382;2023-07-13T02:35:43;94443.72;;;22.69;66.12
7768;BME280;3928;42.626;23.382;2023-07-13T02:38:10;94451.88;;;22.64;66.40
7768;BME280;3928;42.626;23.382;2023-07-13T02:40:36;94441.50;;;22.77;65.31
7768;BME280;3928;42.626;23.382;2023-07-13T02:43:04;94442.34;;;22.92;64.72
7768;BME280;3928;42.626;23.382;2023-07-13T02:45:31;94449.69;;;23.14;64.52
7768;BME280;3928;42.626;23.382;2023-07-13T02:47:59;94454.56;;;23.05;64.30
7768;BME280;3928;42.626;23.382;2023-07-13T02:50:26;94448.84;;;23.13;64.12
7768;BME280;3928;42.626;23.382;2023-07-13T02:52:52;94451.66;;;23.10;64.02
7768;BME280;3928;42.626;23.382;2023-07-13T02:55:19;94451.09;;;23.05;64.30
7768;BME280;3928;42.626;23.382;2023-07-13T02:57:46;94452.25;;;23.01;64.60
7768;BME280;3928;42.626;23.382;2023-07-13T03:00:13;94461.78;;;23.02;64.76
7768;BME280;3928;42.626;23.382;2023-07-13T03:02:41;94448.47;;;23.05;64.56
7768;BME280;3928;42.626;23.382;2023-07-13T03:05:10;94449.44;;;22.75;65.95
7768;BME280;3928;42.626;23.382;2023-07-13T03:07:38;94449.25;;;22.79;65.82
7768;BME280;3928;42.626;23.382;2023-07-13T03:10:05;94455.81;;;22.86;65.43
7768;BME280;3928;42.626;23.382;2023-07-13T03:12:32;94446.44;;;22.82;65.21
7768;BME280;3928;42.626;23.382;2023-07-13T03:14:59;94460.84;;;22.89;65.81
7768;BME280;3928;42.626;23.382;2023-07-13T03:17:26;94447.19;;;22.98;66.02
7768;BME280;3928;42.626;23.382;2023-07-13T03:19:53;94444.66;;;22.82;66.21
7768;BME280;3928;42.626;23.382;2023-07-13T03:22:21;94465.22;;;23.02;66.14
7768;BME280;3928;42.626;23.382;2023-07-13T03:24:48;94459.69;;;23.07;66.20
7768;BME280;3928;42.626;23.382;2023-07-13T03:27:15;94461.00;;;23.14;65.63
7768;BME280;3928;42.626;23.382;2023-07-13T03:29:41;94458.75;;;23.08;65.15
7768;BME280;3928;42.626;23.382;2023-07-13T03:32:08;94470.16;;;23.07;65.89
7768;BME280;3928;42.626;23.382;2023-07-13T03:34:35;94453.03;;;23.16;65.61
7768;BME280;3928;42.626;23.382;2023-07-13T03:37:02;94402.34;;;22.61;65.88
7768;BME280;3928;42.626;23.382;2023-07-13T03:39:30;94460.94;;;23.01;66.21
7768;BME280;3928;42.626;23.382;2023-07-13T03:41:57;94465.44;;;22.99;66.94
7768;BME280;3928;42.626;23.382;2023-07-13T03:44:24;94467.78;;;22.90;67.46
7768;BME280;3928;42.626;23.382;2023-07-13T03:46:50;94466.63;;;22.80;68.19
7768;BME280;3928;42.626;23.382;2023-07-13T03:49:17;94444.03;;;22.50;69.65
7768;BME280;3928;42.626;23.382;2023-07-13T03:51:44;94458.13;;;22.62;69.69
7768;BME280;3928;42.626;23.382;2023-07-13T03:54:11;94462.97;;;22.68;69.40
7768;BME280;3928;42.626;23.382;2023-07-13T03:56:39;94455.03;;;22.69;68.82
7768;BME280;3928;42.626;23.382;2023-07-13T03:59:06;94461.19;;;22.83;68.29
7768;BME280;3928;42.626;23.382;2023-07-13T04:01:34;94461.00;;;22.71;68.22
7768;BME280;3928;42.626;23.382;2023-07-13T04:04:00;94453.94;;;22.88;68.31
7768;BME280;3928;42.626;23.382;2023-07-13T04:06:29;94467.84;;;23.02;67.84
7768;BME280;3928;42.626;23.382;2023-07-13T04:08:57;94465.09;;;23.18;67.48
7768;BME280;3928;42.626;23.382;2023-07-13T04:11:26;94459.84;;;23.32;67.13
7768;BME280;3928;42.626;23.382;2023-07-13T04:13:55;94465.88;;;23.47;66.80
7768;BME280;3928;42.626;23.382;2023-07-13T04:16:22;94456.94;;;23.64;66.26
7768;BME280;3928;42.626;23.382;2023-07-13T04:18:49;94463.91;;;23.78;65.26
7768;BME280;3928;42.626;23.382;2023-07-13T04:21:20;94458.50;;;23.94;65.35
7768;BME280;3928;42.626;23.382;2023-07-13T04:23:47;94462.59;;;24.10;65.12
7768;BME280;3928;42.626;23.382;2023-07-13T04:26:13;94467.97;;;24.21;65.47
7768;BME280;3928;42.626;23.382;2023-07-13T04:28:40;94472.31;;;24.35;65.13
7768;BME280;3928;42.626;23.382;2023-07-13T04:31:08;94455.97;;;24.32;65.28
7768;BME280;3928;42.626;23.382;2023-07-13T04:33:35;94478.50;;;24.60;64.61
7768;BME280;3928;42.626;23.382;2023-07-13T04:36:02;94487.44;;;24.70;64.42
7768;BME280;3928;42.626;23.382;2023-07-13T04:38:30;94468.66;;;24.76;63.73
7768;BME280;3928;42.626;23.382;2023-07-13T04:41:04;94472.00;;;24.78;62.95
7768;BME280;3928;42.626;23.382;2023-07-13T04:43:31;94474.09;;;24.73;62.92
7768;BME280;3928;42.626;23.382;2023-07-13T04:46:03;94483.25;;;24.67;63.68
7768;BME280;3928;42.626;23.382;2023-07-13T04:48:33;94490.19;;;24.68;63.46
7768;BME280;3928;42.626;23.382;2023-07-13T04:51:00;94489.34;;;24.55;63.75
7768;BME280;3928;42.626;23.382;2023-07-13T04:53:27;94482.41;;;24.41;63.68
7768;BME280;3928;42.626;23.382;2023-07-13T04:55:54;94499.56;;;24.20;64.86
7768;BME280;3928;42.626;23.382;2023-07-13T04:58:22;94495.34;;;24.05;65.37
7768;BME280;3928;42.626;23.382;2023-07-13T05:00:49;94481.16;;;23.95;65.47
7768;BME280;3928;42.626;23.382;2023-07-13T05:03:15;94501.38;;;23.92;65.94
7768;BME280;3928;42.626;23.382;2023-07-13T05:05:54;94500.75;;;24.02;65.96
7768;BME280;3928;42.626;23.382;2023-07-13T05:08:22;94494.06;;;24.10;65.42
7768;BME280;3928;42.626;23.382;2023-07-13T05:10:50;94505.69;;;24.33;65.15
7768;BME280;3928;42.626;23.382;2023-07-13T05:13:17;94511.78;;;24.34;64.20
7768;BME280;3928;42.626;23.382;2023-07-13T05:15:44;94501.91;;;24.37;64.66
7768;BME280;3928;42.626;23.382;2023-07-13T05:18:10;94501.28;;;24.46;64.31
7768;BME280;3928;42.626;23.382;2023-07-13T05:20:37;94507.81;;;24.54;64.90
7768;BME280;3928;42.626;23.382;2023-07-13T05:23:06;94504.88;;;24.71;64.83
7768;BME280;3928;42.626;23.382;2023-07-13T05:25:33;94512.22;;;24.91;64.65
7768;BME280;3928;42.626;23.382;2023-07-13T05:28:00;94504.47;;;25.02;63.83
7768;BME280;3928;42.626;23.382;2023-07-13T05:30:26;94511.59;;;25.00;64.45
7768;BME280;3928;42.626;23.382;2023-07-13T05:32:53;94510.34;;;25.06;64.04
7768;BME280;3928;42.626;23.382;2023-07-13T05:35:20;94489.63;;;25.14;64.08
7768;BME280;3928;42.626;23.382;2023-07-13T05:37:47;94519.03;;;25.56;64.30
7768;BME280;3928;42.626;23.382;2023-07-13T05:40:15;94509.53;;;25.79;64.43
7768;BME280;3928;42.626;23.382;2023-07-13T05:42:42;94523.72;;;26.00;63.82
7768;BME280;3928;42.626;23.382;2023-07-13T05:45:09;94517.31;;;26.15;61.93
7768;BME280;3928;42.626;23.382;2023-07-13T05:47:36;94512.88;;;26.29;61.60
7768;BME280;3928;42.626;23.382;2023-07-13T05:50:03;94512.09;;;26.50;61.01
7768;BME280;3928;42.626;23.382;2023-07-13T05:52:30;94518.03;;;26.76;61.90
7768;BME280;3928;42.626;23.382;2023-07-13T05:54:57;94507.97;;;26.93;60.98
7768;BME280;3928;42.626;23.382;2023-07-13T05:57:25;94516.38;;;27.20;60.05
7768;BME280;3928;42.626;23.382;2023-07-13T05:59:51;94509.09;;;27.35;59.09
7768;BME280;3928;42.626;23.382;2023-07-13T06:02:18;94516.13;;;27.46;57.26
7768;BME280;3928;42.626;23.382;2023-07-13T06:04:45;94510.47;;;27.61;57.28
7768;BME280;3928;42.626;23.382;2023-07-13T06:07:11;94512.16;;;27.74;57.47
7768;BME280;3928;42.626;23.382;2023-07-13T06:09:38;94500.94;;;27.92;57.60
7768;BME280;3928;42.626;23.382;2023-07-13T06:12:06;94500.16;;;28.13;57.74
7768;BME280;3928;42.626;23.382;2023-07-13T06:14:34;94502.03;;;28.33;56.57
7768;BME280;3928;42.626;23.382;2023-07-13T06:17:01;94502.53;;;28.48;55.98
7768;BME280;3928;42.626;23.382;2023-07-13T06:19:28;94506.34;;;28.55;55.85
7768;BME280;3928;42.626;23.382;2023-07-13T06:21:55;94508.78;;;28.68;54.60
7768;BME280;3928;42.626;23.382;2023-07-13T06:24:23;94516.44;;;28.71;53.76
7768;BME280;3928;42.626;23.382;2023-07-13T06:26:50;94516.59;;;28.90;53.60
7768;BME280;3928;42.626;23.382;2023-07-13T06:29:17;94505.41;;;29.07;53.79
7768;BME280;3928;42.626;23.382;2023-07-13T06:31:45;94503.47;;;29.09;53.60
7768;BME280;3928;42.626;23.382;2023-07-13T06:34:12;94500.47;;;29.24;52.92
7768;BME280;3928;42.626;23.382;2023-07-13T06:36:39;94503.47;;;29.40;52.49
7768;BME280;3928;42.626;23.382;2023-07-13T06:39:06;94506.59;;;29.55;49.84
7768;BME280;3928;42.626;23.382;2023-07-13T06:41:33;94499.38;;;29.66;49.08
7768;BME280;3928;42.626;23.382;2023-07-13T06:44:00;94504.03;;;29.84;48.84
7768;BME280;3928;42.626;23.382;2023-07-13T06:46:28;94502.78;;;29.97;46.79
7768;BME280;3928;42.626;23.382;2023-07-13T06:48:57;94507.69;;;30.12;48.13
7768;BME280;3928;42.626;23.382;2023-07-13T06:51:25;94507.84;;;30.10;47.77
7768;BME280;3928;42.626;23.382;2023-07-13T06:53:52;94509.63;;;30.29;46.74
7768;BME280;3928;42.626;23.382;2023-07-13T06:56:19;94493.91;;;30.37;46.49
7768;BME280;3928;42.626;23.382;2023-07-13T06:58:46;94504.63;;;30.55;46.34
7768;BME280;3928;42.626;23.382;2023-07-13T07:01:13;94510.34;;;30.70;45.68
7768;BME280;3928;42.626;23.382;2023-07-13T07:03:39;94503.38;;;30.78;43.49
7768;BME280;3928;42.626;23.382;2023-07-13T07:06:13;94505.56;;;30.93;44.49
7768;BME280;3928;42.626;23.382;2023-07-13T07:08:41;94486.72;;;30.96;45.17
7768;BME280;3928;42.626;23.382;2023-07-13T07:11:10;94504.63;;;31.11;45.49
7768;BME280;3928;42.626;23.382;2023-07-13T07:13:37;94503.81;;;31.11;44.89
7768;BME280;3928;42.626;23.382;2023-07-13T07:16:04;94514.69;;;31.27;45.06
7768;BME280;3928;42.626;23.382;2023-07-13T07:18:32;94513.09;;;31.34;45.15
7768;BME280;3928;42.626;23.382;2023-07-13T07:20:58;94511.88;;;31.29;44.22
7768;BME280;3928;42.626;23.382;2023-07-13T07:23:27;94511.84;;;31.38;44.15
7768;BME280;3928;42.626;23.382;2023-07-13T07:25:53;94499.53;;;31.37;43.28
7768;BME280;3928;42.626;23.382;2023-07-13T07:28:20;94511.94;;;31.47;45.28
7768;BME280;3928;42.626;23.382;2023-07-13T07:30:48;94498.66;;;31.47;43.94
7768;BME280;3928;42.626;23.382;2023-07-13T07:33:15;94505.25;;;31.42;44.41
7768;BME280;3928;42.626;23.382;2023-07-13T07:35:43;94509.66;;;31.61;43.43
7768;BME280;3928;42.626;23.382;2023-07-13T07:38:09;94491.44;;;31.66;41.16
7768;BME280;3928;42.626;23.382;2023-07-13T07:40:38;94504.56;;;31.95;41.75
7768;BME280;3928;42.626;23.382;2023-07-13T07:43:07;94501.16;;;32.03;40.74
7768;BME280;3928;42.626;23.382;2023-07-13T07:45:34;94497.00;;;32.00;41.21
7768;BME280;3928;42.626;23.382;2023-07-13T07:48:03;94496.53;;;31.87;40.81
7768;BME280;3928;42.626;23.382;2023-07-13T07:50:31;94482.81;;;32.10;41.29
7768;BME280;3928;42.626;23.382;2023-07-13T07:52:58;94492.59;;;32.27;41.00
7768;BME280;3928;42.626;23.382;2023-07-13T07:55:25;94478.31;;;32.28;41.85
7768;BME280;3928;42.626;23.382;2023-07-13T07:57:53;94490.72;;;32.37;43.38
7768;BME280;3928;42.626;23.382;2023-07-13T08:00:21;94488.91;;;32.38;42.06
7768;BME280;3928;42.626;23.382;2023-07-13T08:02:47;94482.66;;;32.47;42.61
7768;BME280;3928;42.626;23.382;2023-07-13T08:05:14;94485.91;;;32.58;42.96
7768;BME280;3928;42.626;23.382;2023-07-13T08:07:41;94483.97;;;32.86;41.84
7768;BME280;3928;42.626;23.382;2023-07-13T08:10:08;94425.97;;;32.64;41.91
7768;BME280;3928;42.626;23.382;2023-07-13T08:12:36;94461.34;;;33.08;42.49
7768;BME280;3928;42.626;23.382;2023-07-13T08:15:06;94462.06;;;33.27;41.26
7768;BME280;3928;42.626;23.382;2023-07-13T08:17:33;94460.38;;;33.43;41.76
7768;BME280;3928;42.626;23.382;2023-07-13T08:20:00;94454.25;;;33.59;41.51
7768;BME280;3928;42.626;23.382;2023-07-13T08:22:27;94455.28;;;33.66;40.44
7768;BME280;3928;42.626;23.382;2023-07-13T08:24:54;94454.81;;;33.79;39.45
7768;BME280;3928;42.626;23.382;2023-07-13T08:27:22;94431.88;;;33.78;38.37
7768;BME280;3928;42.626;23.382;2023-07-13T08:29:49;94434.88;;;33.75;39.01
7768;BME280;3928;42.626;23.382;2023-07-13T08:32:17;94448.00;;;33.77;41.16
7768;BME280;3928;42.626;23.382;2023-07-13T08:34:44;94448.47;;;33.72;39.96
7768;BME280;3928;42.626;23.382;2023-07-13T08:37:11;94444.06;;;33.89;40.00
7768;BME280;3928;42.626;23.382;2023-07-13T08:39:38;94434.09;;;33.99;40.07
7768;BME280;3928;42.626;23.382;2023-07-13T08:42:09;94439.63;;;34.22;39.32
7768;BME280;3928;42.626;23.382;2023-07-13T08:44:46;94446.81;;;34.46;38.95
7768;BME280;3928;42.626;23.382;2023-07-13T08:47:21;94439.78;;;34.69;37.90
7768;BME280;3928;42.626;23.382;2023-07-13T08:49:48;94432.75;;;34.84;38.48
7768;BME280;3928;42.626;23.382;2023-07-13T08:52:26;94439.78;;;34.94;38.32
7768;BME280;3928;42.626;23.382;2023-07-13T08:54:56;94444.53;;;35.14;37.84
7768;BME280;3928;42.626;23.382;2023-07-13T08:57:31;94441.47;;;35.34;37.20
7768;BME280;3928;42.626;23.382;2023-07-13T08:59:59;94449.31;;;35.27;36.95
7768;BME280;3928;42.626;23.382;2023-07-13T09:02:32;94449.97;;;35.45;36.46
7768;BME280;3928;42.626;23.382;2023-07-13T09:05:08;94443.88;;;35.60;35.09
7768;BME280;3928;42.626;23.382;2023-07-13T09:07:44;94461.78;;;35.82;35.43
7768;BME280;3928;42.626;23.382;2023-07-13T09:10:18;94468.06;;;35.97;33.98
7768;BME280;3928;42.626;23.382;2023-07-13T09:12:56;94474.00;;;36.16;35.48
7768;BME280;3928;42.626;23.382;2023-07-13T09:15:30;94477.72;;;36.29;35.26
7768;BME280;3928;42.626;23.382;2023-07-13T09:18:01;94471.53;;;36.37;34.01
7768;BME280;3928;42.626;23.382;2023-07-13T09:20:31;94479.41;;;36.53;33.46
7768;BME280;3928;42.626;23.382;2023-07-13T09:23:01;94478.03;;;36.57;33.46
7768;BME280;3928;42.626;23.382;2023-07-13T09:25:35;94478.16;;;36.64;32.41
7768;BME280;3928;42.626;23.382;2023-07-13T09:28:10;94451.28;;;36.57;32.85
7768;BME280;3928;42.626;23.382;2023-07-13T09:30:42;94436.06;;;36.58;33.71
7768;BME280;3928;42.626;23.382;2023-07-13T09:33:12;94482.66;;;36.86;33.03
7768;BME280;3928;42.626;23.382;2023-07-13T09:35:39;94473.00;;;37.00;32.79
7768;BME280;3928;42.626;23.382;2023-07-13T09:38:12;94485.69;;;37.21;32.74
7768;BME280;3928;42.626;23.382;2023-07-13T09:40:53;94463.31;;;37.14;31.04
7768;BME280;3928;42.626;23.382;2023-07-13T09:43:24;94478.84;;;37.18;31.66
7768;BME280;3928;42.626;23.382;2023-07-13T09:45:52;94465.53;;;37.10;31.85
7768;BME280;3928;42.626;23.382;2023-07-13T09:48:20;94470.16;;;37.16;32.24
7768;BME280;3928;42.626;23.382;2023-07-13T09:50:47;94469.38;;;37.31;32.23
7768;BME280;3928;42.626;23.382;2023-07-13T09:53:16;94460.13;;;37.18;31.37
7768;BME280;3928;42.626;23.382;2023-07-13T09:55:44;94458.00;;;37.29;31.74
7768;BME280;3928;42.626;23.382;2023-07-13T09:58:14;94453.56;;;37.51;31.62
7768;BME280;3928;42.626;23.382;2023-07-13T10:00:42;94445.72;;;37.49;30.66
7768;BME280;3928;42.626;23.382;2023-07-13T10:03:17;94440.16;;;37.65;30.88
7768;BME280;3928;42.626;23.382;2023-07-13T10:05:49;94441.81;;;37.66;30.24
7768;BME280;3928;42.626;23.382;2023-07-13T10:08:23;94437.09;;;37.83;31.57
7768;BME280;3928;42.626;23.382;2023-07-13T10:10:57;94431.13;;;38.02;30.10
7768;BME280;3928;42.626;23.382;2023-07-13T10:13:31;94412.38;;;38.24;29.59
7768;BME280;3928;42.626;23.382;2023-07-13T10:16:00;94423.03;;;38.60;29.38
7768;BME280;3928;42.626;23.382;2023-07-13T10:18:29;94428.75;;;38.50;28.02
7768;BME280;3928;42.626;23.382;2023-07-13T10:21:17;94433.78;;;38.60;30.52
7768;BME280;3928;42.626;23.382;2023-07-13T10:23:45;94423.19;;;38.73;28.95
7768;BME280;3928;42.626;23.382;2023-07-13T10:26:16;94430.19;;;38.74;27.73
7768;BME280;3928;42.626;23.382;2023-07-13T10:28:47;94425.34;;;38.63;28.46
7768;BME280;3928;42.626;23.382;2023-07-13T10:31:19;94410.72;;;38.44;29.13
7768;BME280;3928;42.626;23.382;2023-07-13T10:33:46;94422.78;;;38.76;30.14
7768;BME280;3928;42.626;23.382;2023-07-13T10:36:19;94406.13;;;38.87;29.47
7768;BME280;3928;42.626;23.382;2023-07-13T10:38:47;94409.69;;;39.23;28.66
7768;BME280;3928;42.626;23.382;2023-07-13T10:41:19;94414.97;;;39.44;28.86
7768;BME280;3928;42.626;23.382;2023-07-13T10:43:50;94406.25;;;39.35;27.47
7768;BME280;3928;42.626;23.382;2023-07-13T10:46:19;94397.00;;;39.51;28.98
7768;BME280;3928;42.626;23.382;2023-07-13T10:48:50;94394.84;;;39.68;28.26
7768;BME280;3928;42.626;23.382;2023-07-13T10:51:21;94394.84;;;39.74;27.21
7768;BME280;3928;42.626;23.382;2023-07-13T10:54:20;94384.50;;;39.78;26.87
7768;BME280;3928;42.626;23.382;2023-07-13T10:56:52;94382.91;;;39.90;27.24
7768;BME280;3928;42.626;23.382;2023-07-13T10:59:25;94383.72;;;39.84;26.59
7768;BME280;3928;42.626;23.382;2023-07-13T11:01:56;94378.63;;;40.02;27.43
7768;BME280;3928;42.626;23.382;2023-07-13T11:04:24;94361.06;;;40.07;26.33
7768;BME280;3928;42.626;23.382;2023-07-13T11:06:57;94367.28;;;40.27;25.43
7768;BME280;3928;42.626;23.382;2023-07-13T11:09:33;94366.03;;;40.36;25.75
7768;BME280;3928;42.626;23.382;2023-07-13T11:12:06;94362.16;;;40.52;27.15
7768;BME280;3928;42.626;23.382;2023-07-13T11:14:35;94366.28;;;40.54;25.30
7768;BME280;3928;42.626;23.382;2023-07-13T11:17:37;94353.63;;;40.48;25.83
7768;BME280;3928;42.626;23.382;2023-07-13T11:20:20;94351.78;;;40.42;26.21
7768;BME280;3928;42.626;23.382;2023-07-13T11:22:52;94346.75;;;39.99;25.90
7768;BME280;3928;42.626;23.382;2023-07-13T11:25:28;94344.06;;;39.38;25.55
7768;BME280;3928;42.626;23.382;2023-07-13T11:28:11;94348.19;;;39.41;24.87
7768;BME280;3928;42.626;23.382;2023-07-13T11:30:42;94341.28;;;39.60;26.87
7768;BME280;3928;42.626;23.382;2023-07-13T11:33:21;94337.41;;;39.82;27.13
7768;BME280;3928;42.626;23.382;2023-07-13T11:35:53;94334.16;;;40.07;26.58
7768;BME280;3928;42.626;23.382;2023-07-13T11:38:31;94339.16;;;40.29;26.54
7768;BME280;3928;42.626;23.382;2023-07-13T11:41:02;94332.53;;;40.32;24.85
7768;BME280;3928;42.626;23.382;2023-07-13T11:43:29;94338.34;;;40.55;25.45
7768;BME280;3928;42.626;23.382;2023-07-13T11:45:58;94325.06;;;40.74;25.00
7768;BME280;3928;42.626;23.382;2023-07-13T11:48:27;94330.00;;;40.97;25.07
7768;BME280;3928;42.626;23.382;2023-07-13T11:50:59;94336.59;;;41.07;25.24
7768;BME280;3928;42.626;23.382;2023-07-13T11:53:34;94326.19;;;41.31;24.35
7768;BME280;3928;42.626;23.382;2023-07-13T11:56:04;94328.19;;;41.48;24.42
7768;BME280;3928;42.626;23.382;2023-07-13T11:58:32;94327.13;;;41.56;24.63
7768;BME280;3928;42.626;23.382;2023-07-13T12:01:01;94316.69;;;41.66;24.44
7768;BME280;3928;42.626;23.382;2023-07-13T12:03:30;94315.84;;;41.72;23.50
7768;BME280;3928;42.626;23.382;2023-07-13T12:06:00;94319.16;;;41.74;23.15
7768;BME280;3928;42.626;23.382;2023-07-13T12:08:29;94304.81;;;41.81;23.29
7768;BME280;3928;42.626;23.382;2023-07-13T12:10:58;94312.00;;;41.93;23.42
7768;BME280;3928;42.626;23.382;2023-07-13T12:13:27;94307.25;;;41.89;23.06
7768;BME280;3928;42.626;23.382;2023-07-13T12:15:56;94311.50;;;41.71;22.18
7768;BME280;3928;42.626;23.382;2023-07-13T12:18:29;94302.75;;;41.76;23.58
7768;BME280;3928;42.626;23.382;2023-07-13T12:20:58;94277.91;;;41.74;23.71
7768;BME280;3928;42.626;23.382;2023-07-13T12:23:29;94296.91;;;41.86;23.11
7768;BME280;3928;42.626;23.382;2023-07-13T12:25:59;94288.50;;;41.62;23.34
7768;BME280;3928;42.626;23.382;2023-07-13T12:28:32;94285.25;;;41.54;21.96
7768;BME280;3928;42.626;23.382;2023-07-13T12:31:00;94274.44;;;41.15;22.51
7768;BME280;3928;42.626;23.382;2023-07-13T12:33:28;94277.84;;;40.91;22.39
7768;BME280;3928;42.626;23.382;2023-07-13T12:35:57;94260.13;;;40.30;22.80
7768;BME280;3928;42.626;23.382;2023-07-13T12:38:27;94275.41;;;40.37;22.95
7768;BME280;3928;42.626;23.382;2023-07-13T12:40:55;94287.44;;;40.47;23.82
7768;BME280;3928;42.626;23.382;2023-07-13T12:43:24;94269.22;;;40.63;23.84
7768;BME280;3928;42.626;23.382;2023-07-13T12:45:57;94267.31;;;40.76;24.87
7768;BME280;3928;42.626;23.382;2023-07-13T12:48:24;94249.69;;;40.80;22.94
7768;BME280;3928;42.626;23.382;2023-07-13T12:50:53;94260.38;;;41.07;22.16
7768;BME280;3928;42.626;23.382;2023-07-13T12:53:21;94261.75;;;40.58;22.16
7768;BME280;3928;42.626;23.382;2023-07-13T12:55:50;94255.78;;;40.43;22.79
7768;BME280;3928;42.626;23.382;2023-07-13T12:58:24;94258.44;;;40.56;22.48
7768;BME280;3928;42.626;23.382;2023-07-13T13:00:54;94254.97;;;40.42;22.56
7768;BME280;3928;42.626;23.382;2023-07-13T13:03:26;94253.72;;;39.98;23.22
7768;BME280;3928;42.626;23.382;2023-07-13T13:05:58;94255.81;;;40.03;24.98
7768;BME280;3928;42.626;23.382;2023-07-13T13:08:25;94227.88;;;40.04;24.09
7768;BME280;3928;42.626;23.382;2023-07-13T13:10:52;94239.22;;;40.13;23.41
7768;BME280;3928;42.626;23.382;2023-07-13T13:13:20;94242.31;;;40.36;23.88
7768;BME280;3928;42.626;23.382;2023-07-13T13:15:47;94235.69;;;40.52;24.55
7768;BME280;3928;42.626;23.382;2023-07-13T13:18:18;94228.59;;;40.71;23.71